Latest Coastal Weather Observations for Arlington Reef

IDQ60701

Issued at 3:32 pm EST Tuesday 11 December 2018 (issued every 10 minutes, with the page automatically refreshed every 10 minutes)

About coastal observations | Map of coastal stations | Coastal observations for QLD | Marine services | Other Formats
Station Details ID: 200879 Name: ARLINGTON REEF Lat: -16.72 Lon: 146.11 Height: 0.0 m
Data from the previous 72 hours. | See also: Recent months at Arlington Reef
Date/Time
EST
Wind Sea
Height
m
Swell Vis
km
Cloud Weather Temp
°C
Press
hPa
Rain since
9am
mm
Dir  Spd
kts
Gust
kts
Height
m
Period
s
Dir
11/03:30pm ESE 6 6 - - - - - - - - 1007.8 -
11/03:00pm E 7 8 - - - - - - - - 1007.9 -
11/02:30pm ESE 7 9 - - - - - - - - 1008.1 -
11/02:00pm E 8 9 - - - - - - - - 1008.3 -
11/01:30pm ESE 8 9 - - - - - - - - 1008.8 -
11/01:00pm ESE 8 10 - - - - - - - - 1009.0 -
11/12:30pm ESE 8 10 - - - - - - - - 1009.1 -
11/12:00pm ESE 8 9 - - - - - - - - 1009.6 -
11/11:30am ESE 8 9 - - - - - - - - 1009.9 -
11/11:00am ESE 7 8 - - - - - - - - 1010.1 -
11/10:30am E 8 9 - - - - - - - - 1010.1 -
11/10:00am E 10 11 - - - - - - - - 1010.1 -
11/09:30am E 9 11 - - - - - - - - 1010.2 -
11/09:00am E 10 12 - - - - - - - - 1010.4 -
11/08:30am E 10 12 - - - - - - - - 1010.4 -
11/08:00am E 10 11 - - - - - - - - 1010.2 -
11/07:30am E 10 11 - - - - - - - - 1009.9 -
11/07:00am E 9 10 - - - - - - - - 1009.8 -
11/06:30am ESE 9 10 - - - - - - - - 1009.4 -
11/06:00am ESE 12 14 - - - - - - - - 1008.5 -
11/05:30am ESE 10 12 - - - - - - - - 1008.1 -
11/05:00am ESE 11 13 - - - - - - - - 1007.8 -
11/04:30am ESE 11 13 - - - - - - - - 1007.5 -
11/04:00am ESE 11 12 - - - - - - - - 1007.5 -
11/03:30am ESE 10 12 - - - - - - - - 1007.4 -
11/03:00am SE 12 14 - - - - - - - - 1007.3 -
11/02:30am SE 10 11 - - - - - - - - 1007.6 -
11/02:00am SE 9 10 - - - - - - - - 1007.7 -
11/01:30am SE 10 11 - - - - - - - - 1007.8 -
11/01:00am ESE 9 10 - - - - - - - - 1008.2 -
11/12:30am ESE 8 9 - - - - - - - - 1008.5 -
11/12:00am ESE 9 9 - - - - - - - - 1008.6 -
 
Date/Time
EST
Wind Sea
Height
m
Swell Vis
km
Cloud Weather Temp
°C
Press
hPa
Rain since
9am
mm
Dir  Spd
kts
Gust
kts
Height
m
Period
s
Dir
10/11:30pm ESE 9 10 - - - - - - - - 1008.6 -
10/11:00pm ESE 8 11 - - - - - - - - 1008.9 -
10/10:30pm E 9 11 - - - - - - - - 1008.9 -
10/10:00pm E 8 9 - - - - - - - - 1008.9 -
10/09:30pm E 9 10 - - - - - - - - 1008.6 -
10/09:00pm E 9 11 - - - - - - - - 1008.3 -
10/08:30pm E 10 12 - - - - - - - - 1007.9 -
10/08:00pm E 11 13 - - - - - - - - 1007.6 -
10/07:30pm E 11 13 - - - - - - - - 1007.2 -
10/07:00pm ENE 12 14 - - - - - - - - 1007.1 -
10/06:30pm ENE 13 14 - - - - - - - - 1006.7 -
10/06:00pm ENE 13 16 - - - - - - - - 1006.2 -
10/05:30pm ENE 14 15 - - - - - - - - 1005.8 -
10/05:00pm ENE 13 15 - - - - - - - - 1005.3 -
10/04:30pm NE 14 16 - - - - - - - - 1004.9 -
10/04:00pm NE 16 19 - - - - - - - - 1004.7 -
10/03:30pm NE 17 20 - - - - - - - - 1004.6 -
10/03:00pm NE 15 19 - - - - - - - - 1004.8 -
10/02:30pm ESE 10 12 - - - - - - - - 1005.1 -
10/02:00pm ESE 11 14 - - - - - - - - 1005.4 -
10/01:30pm ESE 14 17 - - - - - - - - 1005.8 -
10/01:00pm ESE 14 16 - - - - - - - - 1006.0 -
10/12:30pm ESE 13 15 - - - - - - - - 1006.1 -
10/12:00pm E 14 17 - - - - - - - - 1006.2 -
10/11:30am E 14 15 - - - - - - - - 1006.4 -
10/11:00am ENE 14 15 - - - - - - - - 1006.5 -
10/10:30am ENE 15 17 - - - - - - - - 1006.7 -
10/10:00am ENE 17 19 - - - - - - - - 1006.8 -
10/09:30am ENE 16 20 - - - - - - - - 1006.8 -
10/09:00am ENE 16 19 - - - - - - - - 1006.1 -
10/08:30am ENE 18 21 - - - - - - - - 1006.1 -
10/08:00am ENE 18 21 - - - - - - - - 1005.9 -
10/07:30am ENE 10 14 - - - - - - - - 1005.5 -
10/07:00am NE 13 15 - - - - - - - - 1005.2 -
10/06:30am ENE 19 23 - - - - - - - - 1004.8 -
10/06:00am ENE 22 26 - - - - - - - - 1004.2 -
10/05:30am ENE 23 27 - - - - - - - - 1003.3 -
10/05:00am E 24 30 - - - - - - - - 1002.7 -
10/04:33am ENE 25 35 - - - - - - - - 1002.1 -
10/04:30am E 24 30 - - - - - - - - 1002.2 -
10/04:21am ENE 24 28 - - - - - - - - 1001.9 -
10/04:09am NE 15 26 - - - - - - - - 1001.8 -
10/04:00am NNE 17 23 - - - - - - - - 1001.8 -
10/03:30am NE 19 23 - - - - - - - - 1001.2 -
10/03:00am ENE 17 20 - - - - - - - - 1001.2 -
10/02:30am ENE 22 31 - - - - - - - - 1001.1 -
10/02:10am E 28 43 - - - - - - - - 1000.4 -
10/02:04am E 33 43 - - - - - - - - 1000.1 -
10/02:00am ESE 34 42 - - - - - - - - 999.9 -
10/01:30am E 34 43 - - - - - - - - 999.6 -
10/01:23am ESE 32 43 - - - - - - - - 999.5 -
10/01:00am ESE 37 47 - - - - - - - - 999.4 -
10/12:30am SE 37 49 - - - - - - - - 999.4 -
10/12:22am SE 37 47 - - - - - - - - 999.6 -
10/12:00am SE 39 46 - - - - - - - - 999.3 -
 
Date/Time
EST
Wind Sea
Height
m
Swell Vis
km
Cloud Weather Temp
°C
Press
hPa
Rain since
9am
mm
Dir  Spd
kts
Gust
kts
Height
m
Period
s
Dir
09/11:30pm SE 35 45 - - - - - - - - 1000.1 -
09/11:24pm SE 34 45 - - - - - - - - 1000.1 -
09/11:00pm SE 33 41 - - - - - - - - 1000.9 -
09/10:30pm SE 32 43 - - - - - - - - 1001.3 -
09/10:22pm SE 29 43 - - - - - - - - 1001.4 -
09/10:00pm SE 26 33 - - - - - - - - 1001.5 -
09/09:30pm SE 25 31 - - - - - - - - 1001.6 -
09/09:00pm SE 24 28 - - - - - - - - 1000.9 -
09/08:30pm SE 27 31 - - - - - - - - 1001.0 -
09/08:00pm SE 26 34 - - - - - - - - 1001.2 -
09/07:40pm SSE 29 37 - - - - - - - - 1000.8 -
09/07:30pm S 26 38 - - - - - - - - 1000.7 -
09/07:00pm S 33 41 - - - - - - - - 1000.8 -
09/06:47pm S 30 41 - - - - - - - - 1000.5 -
09/06:30pm S 31 36 - - - - - - - - 1000.3 -
09/06:00pm S 30 36 - - - - - - - - 1000.2 -
09/05:30pm S 32 40 - - - - - - - - 999.9 -
09/05:00pm S 28 35 - - - - - - - - 999.8 -
09/04:30pm SSE 21 28 - - - - - - - - 1000.5 -
09/04:00pm SSE 26 33 - - - - - - - - 1000.4 -
09/03:45pm SSE 23 37 - - - - - - - - 1000.4 -
09/03:30pm SSE 27 32 - - - - - - - - 1000.7 -
09/03:00pm SSE 26 33 - - - - - - - - 1000.3 -
09/02:30pm S 25 31 - - - - - - - - 1000.8 -
09/02:00pm S 28 36 - - - - - - - - 1000.7 -
09/01:47pm S 24 34 - - - - - - - - 1000.8 -
09/01:30pm SSE 31 38 - - - - - - - - 1000.9 -
09/01:23pm SSE 28 38 - - - - - - - - 1000.9 -
09/01:17pm SSE 22 33 - - - - - - - - 1001.1 -
09/01:00pm SSE 27 31 - - - - - - - - 1001.8 -
09/12:50pm S 30 39 - - - - - - - - 1001.3 -
09/12:30pm SSW 32 40 - - - - - - - - 1001.0 -
09/12:00pm SSW 33 41 - - - - - - - - 1001.1 -
09/11:30am SSW 33 47 - - - - - - - - 1001.1 -
09/11:28am SSW 31 43 - - - - - - - - 1001.7 -
09/11:00am SSW 33 42 - - - - - - - - 1002.0 -
09/10:30am SSW 32 41 - - - - - - - - 1002.5 -
09/10:00am SSW 31 42 - - - - - - - - 1002.5 -
09/09:30am S 33 44 - - - - - - - - 1002.8 -
09/09:22am S 33 44 - - - - - - - - 1002.5 -
09/09:00am S 31 37 - - - - - - - - 1002.7 -
09/08:30am S 32 40 - - - - - - - - 1002.4 -
09/08:10am S 32 42 - - - - - - - - 1002.6 -
09/08:00am S 33 43 - - - - - - - - 1002.5 -
09/07:58am S 32 43 - - - - - - - - 1002.6 -
09/07:30am S 33 41 - - - - - - - - 1002.7 -
09/07:00am S 33 41 - - - - - - - - 1002.7 -
09/06:30am S 34 43 - - - - - - - - 1002.4 -
09/06:21am SSW 31 43 - - - - - - - - 1002.1 -
09/06:00am S 33 42 - - - - - - - - 1002.2 -
09/05:52am S 30 42 - - - - - - - - 1002.2 -
09/05:30am SSW 28 36 - - - - - - - - 1002.7 -
09/05:06am SSW 27 37 - - - - - - - - 1002.4 -
09/05:00am SSW 29 37 - - - - - - - - 1002.7 -
09/04:35am S 29 40 - - - - - - - - 1002.3 -
09/04:30am S 29 37 - - - - - - - - 1002.3 -
09/04:16am S 28 39 - - - - - - - - 1002.5 -
09/04:00am S 26 31 - - - - - - - - 1002.7 -
09/03:30am S 29 35 - - - - - - - - 1002.6 -
09/03:00am SSW 26 32 - - - - - - - - 1002.7 -
09/02:30am SSW 26 33 - - - - - - - - 1003.2 -
09/02:00am S 28 33 - - - - - - - - 1003.4 -
09/01:30am SSW 26 31 - - - - - - - - 1004.0 -
09/01:00am S 27 33 - - - - - - - - 1004.4 -
09/12:30am S 25 35 - - - - - - - - 1004.6 -
09/12:00am S 32 39 - - - - - - - - 1005.2 -
 
Date/Time
EST
Wind Sea
Height
m
Swell Vis
km
Cloud Weather Temp
°C
Press
hPa
Rain since
9am
mm
Dir  Spd
kts
Gust
kts
Height
m
Period
s
Dir
08/11:30pm S 29 40 - - - - - - - - 1005.4 -
08/11:27pm S 29 40 - - - - - - - - 1005.4 -
08/11:00pm S 31 40 - - - - - - - - 1005.6 -
08/10:30pm S 28 35 - - - - - - - - 1005.6 -
08/10:00pm S 27 32 - - - - - - - - 1006.2 -
08/09:30pm S 26 31 - - - - - - - - 1006.0 -
08/09:00pm S 26 32 - - - - - - - - 1006.3 -
08/08:30pm S 25 31 - - - - - - - - 1005.9 -
08/08:00pm S 24 29 - - - - - - - - 1006.2 -
08/07:30pm S 23 30 - - - - - - - - 1006.0 -
08/07:00pm S 23 29 - - - - - - - - 1005.7 -
08/06:30pm S 25 30 - - - - - - - - 1005.8 -
08/06:00pm S 28 35 - - - - - - - - 1005.5 -
08/05:30pm S 28 33 - - - - - - - - 1005.5 -
08/05:00pm S 27 34 - - - - - - - - 1005.4 -
08/04:30pm S 27 33 - - - - - - - - 1005.5 -
08/04:00pm S 24 28 - - - - - - - - 1005.7 -

Other Formats:

Comma delimited format used in spreadsheet applications
http://www.bom.gov.au/fwo/IDQ60701/IDQ60701.94284.axf

JavaScript Object Notation format (JSON) in row-major order
http://www.bom.gov.au/fwo/IDQ60701/IDQ60701.94284.json